createdAt,value
2018-06-25T00:17:26.365Z,97389.00
2018-06-25T00:20:02.018Z,97380.00
2018-06-25T00:25:50.610Z,97381.00
2018-06-25T00:28:33.468Z,97381.00
2018-06-25T00:31:07.923Z,97377.00
2018-06-25T00:33:49.125Z,97380.00
2018-06-25T00:36:30.787Z,97375.00
2018-06-25T00:39:26.173Z,97378.00
2018-06-25T00:42:06.458Z,97373.00
2018-06-25T00:44:40.167Z,97372.00
2018-06-25T00:47:27.934Z,97379.00
2018-06-25T00:50:03.280Z,97377.00
2018-06-25T00:55:34.129Z,97384.00
2018-06-25T00:58:07.890Z,97392.00
2018-06-25T01:00:44.272Z,97392.00
2018-06-25T01:03:19.945Z,97393.00
2018-06-25T01:05:56.074Z,97393.00
2018-06-25T01:08:38.209Z,97389.00
2018-06-25T01:11:15.881Z,97394.00
2018-06-25T01:13:47.099Z,97395.00
2018-06-25T01:16:35.471Z,97393.00
2018-06-25T01:19:21.995Z,97388.00
2018-06-25T01:24:53.005Z,97384.00
2018-06-25T01:27:34.451Z,97388.00
2018-06-25T01:30:18.595Z,97392.00
2018-06-25T01:32:52.996Z,97394.00
2018-06-25T01:35:28.976Z,97389.00
2018-06-25T01:38:16.220Z,97389.00
2018-06-25T01:40:55.790Z,97386.00
2018-06-25T01:43:25.829Z,97381.00
2018-06-25T01:48:58.995Z,97384.00
2018-06-25T01:51:32.818Z,97387.00
2018-06-25T01:54:06.252Z,97386.00
2018-06-25T01:56:37.352Z,97392.00
2018-06-25T01:59:19.274Z,97382.00
2018-06-25T02:02:01.147Z,97378.00
2018-06-25T02:04:38.066Z,97379.00
2018-06-25T02:07:08.252Z,97380.00
2018-06-25T02:09:40.389Z,97372.00
2018-06-25T02:12:11.451Z,97372.00
2018-06-25T02:14:50.870Z,97372.00
2018-06-25T02:17:43.137Z,97378.00
2018-06-25T02:20:36.903Z,97380.00
2018-06-25T02:23:14.287Z,97382.00
2018-06-25T02:25:44.474Z,97380.00
2018-06-25T02:31:14.323Z,97388.00
2018-06-25T02:34:04.131Z,97384.00
2018-06-25T02:36:40.123Z,97382.00
2018-06-25T02:39:22.142Z,97387.00
2018-06-25T02:41:58.067Z,97382.00
2018-06-25T02:44:34.590Z,97386.00
2018-06-25T02:47:09.459Z,97384.00
2018-06-25T02:49:40.521Z,97377.00
2018-06-25T02:52:14.110Z,97380.00
2018-06-25T02:57:52.787Z,97379.00
2018-06-25T03:00:22.846Z,97383.00
2018-06-25T03:02:52.879Z,97388.00
2018-06-25T03:05:22.934Z,97382.00
2018-06-25T03:08:04.551Z,97389.00
2018-06-25T03:10:42.002Z,97389.00
2018-06-25T03:13:22.091Z,97393.00
2018-06-25T03:15:58.957Z,97392.00
2018-06-25T03:18:30.056Z,97385.00
2018-06-25T03:21:06.951Z,97392.00
2018-06-25T03:23:55.169Z,97388.00
2018-06-25T03:26:30.899Z,97392.00
2018-06-25T03:29:04.383Z,97397.00
2018-06-25T03:31:42.499Z,97398.00
2018-06-25T03:34:13.683Z,97397.00
2018-06-25T03:36:44.745Z,97396.00
2018-06-25T03:39:18.035Z,97394.00
2018-06-25T03:41:49.076Z,97392.00
2018-06-25T03:44:19.219Z,97392.00
2018-06-25T03:46:49.292Z,97390.00
2018-06-25T03:49:21.412Z,97394.00
2018-06-25T03:51:51.583Z,97399.00
2018-06-25T03:54:21.723Z,97400.00
2018-06-25T03:56:51.951Z,97406.00
2018-06-25T03:59:22.039Z,97402.00
2018-06-25T04:01:52.763Z,97404.00
2018-06-25T04:04:23.148Z,97408.00
2018-06-25T04:07:01.074Z,97415.00
2018-06-25T04:09:30.728Z,97410.00
2018-06-25T04:12:07.819Z,97410.00
2018-06-25T04:14:44.871Z,97413.00
2018-06-25T04:17:17.191Z,97413.00
2018-06-25T04:19:55.302Z,97411.00
2018-06-25T04:22:28.986Z,97419.00
2018-06-25T04:25:01.028Z,97423.00
2018-06-25T04:27:37.372Z,97421.00
2018-06-25T04:30:08.464Z,97424.00
2018-06-25T04:32:38.663Z,97432.00
2018-06-25T04:35:14.194Z,97430.00
2018-06-25T04:37:44.241Z,97435.00
2018-06-25T04:40:18.803Z,97439.00
2018-06-25T04:42:52.914Z,97446.00
2018-06-25T04:45:24.124Z,97450.00
2018-06-25T04:47:58.902Z,97453.00
2018-06-25T04:50:30.563Z,97453.00
2018-06-25T04:53:00.625Z,97458.00
2018-06-25T04:55:31.210Z,97457.00
2018-06-25T04:58:01.583Z,97454.00
2018-06-25T05:00:31.702Z,97462.00
2018-06-25T05:03:01.799Z,97454.00
2018-06-25T05:05:31.947Z,97467.00
2018-06-25T05:08:06.285Z,97469.00
2018-06-25T05:10:36.457Z,97473.00
2018-06-25T05:13:06.602Z,97469.00
2018-06-25T05:15:39.389Z,97467.00
2018-06-25T05:18:09.549Z,97464.00
2018-06-25T05:20:44.091Z,97455.00
2018-06-25T05:23:26.507Z,97457.00
2018-06-25T05:25:58.704Z,97462.00
2018-06-25T05:28:51.212Z,97468.00
2018-06-25T05:31:23.396Z,97467.00
2018-06-25T05:33:57.360Z,97467.00
2018-06-25T05:36:35.511Z,97473.00
2018-06-25T05:42:19.154Z,97470.00
2018-06-25T05:44:57.471Z,97473.00
2018-06-25T05:47:46.285Z,97480.00
2018-06-25T05:50:26.647Z,97490.00
2018-06-25T05:56:06.778Z,97492.00
2018-06-25T05:58:43.133Z,97491.00
2018-06-25T06:01:14.716Z,97504.00
2018-06-25T06:03:52.614Z,97512.00
2018-06-25T06:06:24.967Z,97515.00
2018-06-25T06:09:08.055Z,97520.00
2018-06-25T06:11:38.238Z,97520.00
2018-06-25T06:14:10.433Z,97524.00
2018-06-25T06:16:42.545Z,97527.00
2018-06-25T06:19:14.872Z,97531.00
2018-06-25T06:21:51.289Z,97522.00
2018-06-25T06:24:32.459Z,97530.00
2018-06-25T06:27:07.921Z,97535.00
2018-06-25T06:29:38.579Z,97538.00
2018-06-25T06:32:31.416Z,97541.00
2018-06-25T06:35:12.738Z,97546.00
2018-06-25T06:37:59.410Z,97547.00
2018-06-25T06:40:35.260Z,97550.00
2018-06-25T06:43:23.811Z,97551.00
2018-06-25T06:46:16.527Z,97552.00
2018-06-25T22:08:26.373Z,97653.00
2018-06-25T22:10:57.921Z,97647.00
2018-06-25T22:13:36.081Z,97652.00
2018-06-25T22:16:28.728Z,97652.00
2018-06-25T22:22:14.180Z,97654.00
2018-06-25T22:24:51.161Z,97659.00
2018-06-25T22:27:37.210Z,97661.00
2018-06-25T22:30:11.429Z,97666.00
2018-06-25T22:32:48.245Z,97664.00
2018-06-25T22:35:24.746Z,97668.00
2018-06-25T22:38:19.539Z,97663.00
2018-06-25T22:41:00.164Z,97664.00
2018-06-25T22:43:38.477Z,97666.00
2018-06-25T22:46:13.272Z,97663.00
2018-06-25T22:48:46.955Z,97665.00
2018-06-25T22:51:19.604Z,97664.00
2018-06-25T22:56:49.931Z,97675.00
2018-06-25T22:59:20.224Z,97677.00
2018-06-25T23:02:00.993Z,97679.00
2018-06-25T23:04:42.880Z,97675.00
2018-06-25T23:07:26.341Z,97677.00
2018-06-25T23:09:58.937Z,97684.00
2018-06-25T23:12:35.090Z,97681.00
2018-06-25T23:15:15.631Z,97680.00
2018-06-25T23:17:59.568Z,97678.00
2018-06-25T23:20:37.334Z,97677.00
2018-06-25T23:23:27.472Z,97682.00
2018-06-25T23:26:02.485Z,97687.00
2018-06-25T23:28:36.766Z,97686.00
2018-06-25T23:31:08.960Z,97688.00
2018-06-25T23:33:41.153Z,97684.00
2018-06-25T23:36:21.492Z,97684.00
2018-06-25T23:38:54.819Z,97678.00
2018-06-25T23:41:25.518Z,97677.00
2018-06-25T23:43:55.641Z,97679.00
2018-06-25T23:46:25.716Z,97678.00
2018-06-25T23:48:55.926Z,97681.00
2018-06-25T23:51:26.017Z,97677.00
2018-06-25T23:53:56.985Z,97678.00
2018-06-25T23:56:28.637Z,97678.00
2018-06-25T23:58:58.727Z,97676.00
